sensor_id;sensor_type;location;lat;lon;timestamp;temperature;humidity
74537;SHT31;63013;51.104;-115.370;2022-11-20T00:01:30;21.81;37.14
74537;SHT31;63013;51.104;-115.370;2022-11-20T00:03:57;21.81;37.16
74537;SHT31;63013;51.104;-115.370;2022-11-20T00:06:26;21.80;37.14
74537;SHT31;63013;51.104;-115.370;2022-11-20T00:08:58;21.78;37.15
74537;SHT31;63013;51.104;-115.370;2022-11-20T00:11:27;21.75;37.13
74537;SHT31;63013;51.104;-115.370;2022-11-20T00:13:57;21.75;37.20
74537;SHT31;63013;51.104;-115.370;2022-11-20T00:16:27;21.73;37.20
74537;SHT31;63013;51.104;-115.370;2022-11-20T00:18:57;21.72;37.17
74537;SHT31;63013;51.104;-115.370;2022-11-20T00:21:25;21.72;37.15
74537;SHT31;63013;51.104;-115.370;2022-11-20T00:23:54;21.73;37.12
74537;SHT31;63013;51.104;-115.370;2022-11-20T00:26:23;21.76;37.07
74537;SHT31;63013;51.104;-115.370;2022-11-20T00:28:56;21.78;37.00
74537;SHT31;63013;51.104;-115.370;2022-11-20T00:31:25;21.82;37.00
74537;SHT31;63013;51.104;-115.370;2022-11-20T00:33:53;21.86;36.95
74537;SHT31;63013;51.104;-115.370;2022-11-20T00:36:21;21.88;36.91
74537;SHT31;63013;51.104;-115.370;2022-11-20T00:38:51;21.89;36.90
74537;SHT31;63013;51.104;-115.370;2022-11-20T00:41:21;21.88;36.90
74537;SHT31;63013;51.104;-115.370;2022-11-20T00:43:50;21.87;36.87
74537;SHT31;63013;51.104;-115.370;2022-11-20T00:46:20;21.86;36.90
74537;SHT31;63013;51.104;-115.370;2022-11-20T00:48:49;21.84;36.91
74537;SHT31;63013;51.104;-115.370;2022-11-20T00:51:18;21.83;36.90
74537;SHT31;63013;51.104;-115.370;2022-11-20T00:53:48;21.81;36.93
74537;SHT31;63013;51.104;-115.370;2022-11-20T00:56:16;21.79;36.97
74537;SHT31;63013;51.104;-115.370;2022-11-20T00:58:45;21.78;36.98
74537;SHT31;63013;51.104;-115.370;2022-11-20T01:01:15;21.75;37.00
74537;SHT31;63013;51.104;-115.370;2022-11-20T01:03:46;21.74;37.00
74537;SHT31;63013;51.104;-115.370;2022-11-20T01:06:17;21.71;37.00
74537;SHT31;63013;51.104;-115.370;2022-11-20T01:08:47;21.69;37.03
74537;SHT31;63013;51.104;-115.370;2022-11-20T01:11:19;21.67;37.03
74537;SHT31;63013;51.104;-115.370;2022-11-20T01:13:53;21.66;37.05
74537;SHT31;63013;51.104;-115.370;2022-11-20T01:16:22;21.63;37.10
74537;SHT31;63013;51.104;-115.370;2022-11-20T01:18:57;21.61;37.09
74537;SHT31;63013;51.104;-115.370;2022-11-20T01:21:28;21.60;37.09
74537;SHT31;63013;51.104;-115.370;2022-11-20T01:24:01;21.58;37.10
74537;SHT31;63013;51.104;-115.370;2022-11-20T01:26:31;21.56;37.10
74537;SHT31;63013;51.104;-115.370;2022-11-20T01:29:00;21.54;37.10
74537;SHT31;63013;51.104;-115.370;2022-11-20T01:31:29;21.52;37.10
74537;SHT31;63013;51.104;-115.370;2022-11-20T01:34:01;21.50;37.11
74537;SHT31;63013;51.104;-115.370;2022-11-20T01:36:36;21.48;37.12
74537;SHT31;63013;51.104;-115.370;2022-11-20T01:39:05;21.46;37.11
74537;SHT31;63013;51.104;-115.370;2022-11-20T01:41:38;21.45;37.11
74537;SHT31;63013;51.104;-115.370;2022-11-20T01:47:14;21.40;37.16
74537;SHT31;63013;51.104;-115.370;2022-11-20T01:50:17;21.38;37.18
74537;SHT31;63013;51.104;-115.370;2022-11-20T01:52:59;21.34;37.19
74537;SHT31;63013;51.104;-115.370;2022-11-20T01:55:34;21.32;37.20
74537;SHT31;63013;51.104;-115.370;2022-11-20T01:58:08;21.31;37.18
74537;SHT31;63013;51.104;-115.370;2022-11-20T02:00:35;21.29;37.20
74537;SHT31;63013;51.104;-115.370;2022-11-20T02:03:07;21.27;37.19
74537;SHT31;63013;51.104;-115.370;2022-11-20T02:08:37;21.23;37.20
74537;SHT31;63013;51.104;-115.370;2022-11-20T02:11:05;21.21;37.20
74537;SHT31;63013;51.104;-115.370;2022-11-20T02:13:32;21.20;37.20
74537;SHT31;63013;51.104;-115.370;2022-11-20T02:16:10;21.18;37.20
74537;SHT31;63013;51.104;-115.370;2022-11-20T02:18:48;21.17;37.20
74537;SHT31;63013;51.104;-115.370;2022-11-20T02:24:10;21.11;37.20
74537;SHT31;63013;51.104;-115.370;2022-11-20T02:29:39;21.08;37.20
74537;SHT31;63013;51.104;-115.370;2022-11-20T02:32:19;21.05;37.20
74537;SHT31;63013;51.104;-115.370;2022-11-20T02:34:51;21.04;37.19
74537;SHT31;63013;51.104;-115.370;2022-11-20T02:37:18;21.01;37.21
74537;SHT31;63013;51.104;-115.370;2022-11-20T02:39:47;20.98;37.20
74537;SHT31;63013;51.104;-115.370;2022-11-20T02:42:17;20.97;37.20
74537;SHT31;63013;51.104;-115.370;2022-11-20T02:44:44;20.95;37.20
74537;SHT31;63013;51.104;-115.370;2022-11-20T02:47:11;20.93;37.20
74537;SHT31;63013;51.104;-115.370;2022-11-20T02:49:38;20.92;37.20
74537;SHT31;63013;51.104;-115.370;2022-11-20T02:52:06;20.89;37.20
74537;SHT31;63013;51.104;-115.370;2022-11-20T02:54:32;20.88;37.23
74537;SHT31;63013;51.104;-115.370;2022-11-20T02:57:00;20.85;37.23
74537;SHT31;63013;51.104;-115.370;2022-11-20T02:59:27;20.84;37.21
74537;SHT31;63013;51.104;-115.370;2022-11-20T03:01:54;20.82;37.22
74537;SHT31;63013;51.104;-115.370;2022-11-20T03:04:20;20.79;37.21
74537;SHT31;63013;51.104;-115.370;2022-11-20T03:06:48;20.77;37.20
74537;SHT31;63013;51.104;-115.370;2022-11-20T03:09:15;20.75;37.20
74537;SHT31;63013;51.104;-115.370;2022-11-20T03:11:42;20.74;37.21
74537;SHT31;63013;51.104;-115.370;2022-11-20T03:14:09;20.72;37.21
74537;SHT31;63013;51.104;-115.370;2022-11-20T03:16:36;20.70;37.22
74537;SHT31;63013;51.104;-115.370;2022-11-20T03:19:02;20.68;37.20
74537;SHT31;63013;51.104;-115.370;2022-11-20T03:21:29;20.67;37.20
74537;SHT31;63013;51.104;-115.370;2022-11-20T03:23:58;20.64;37.21
74537;SHT31;63013;51.104;-115.370;2022-11-20T03:26:25;20.62;37.20
74537;SHT31;63013;51.104;-115.370;2022-11-20T03:28:57;20.61;37.20
74537;SHT31;63013;51.104;-115.370;2022-11-20T03:31:31;20.58;37.20
74537;SHT31;63013;51.104;-115.370;2022-11-20T03:34:02;20.56;37.22
74537;SHT31;63013;51.104;-115.370;2022-11-20T03:36:30;20.52;37.21
74537;SHT31;63013;51.104;-115.370;2022-11-20T03:38:57;20.51;37.23
74537;SHT31;63013;51.104;-115.370;2022-11-20T03:41:26;20.50;37.23
74537;SHT31;63013;51.104;-115.370;2022-11-20T03:44:00;20.49;37.24
74537;SHT31;63013;51.104;-115.370;2022-11-20T03:46:30;20.45;37.27
74537;SHT31;63013;51.104;-115.370;2022-11-20T03:48:58;20.44;37.26
74537;SHT31;63013;51.104;-115.370;2022-11-20T03:51:26;20.42;37.25
74537;SHT31;63013;51.104;-115.370;2022-11-20T03:53:58;20.40;37.24
74537;SHT31;63013;51.104;-115.370;2022-11-20T03:56:29;20.38;37.24
74537;SHT31;63013;51.104;-115.370;2022-11-20T03:58:59;20.37;37.25
74537;SHT31;63013;51.104;-115.370;2022-11-20T04:01:26;20.35;37.25
74537;SHT31;63013;51.104;-115.370;2022-11-20T04:03:57;20.33;37.29
74537;SHT31;63013;51.104;-115.370;2022-11-20T04:08:54;20.31;37.28
74537;SHT31;63013;51.104;-115.370;2022-11-20T04:11:24;20.29;37.28
74537;SHT31;63013;51.104;-115.370;2022-11-20T04:13:57;20.27;37.25
74537;SHT31;63013;51.104;-115.370;2022-11-20T04:16:31;20.25;37.24
74537;SHT31;63013;51.104;-115.370;2022-11-20T04:19:03;20.23;37.24
74537;SHT31;63013;51.104;-115.370;2022-11-20T04:21:32;20.20;37.25
74537;SHT31;63013;51.104;-115.370;2022-11-20T04:24:00;20.19;37.25
74537;SHT31;63013;51.104;-115.370;2022-11-20T04:26:28;20.18;37.25
74537;SHT31;63013;51.104;-115.370;2022-11-20T04:28:56;20.15;37.22
74537;SHT31;63013;51.104;-115.370;2022-11-20T04:31:25;20.15;37.22
74537;SHT31;63013;51.104;-115.370;2022-11-20T04:33:55;20.14;37.20
74537;SHT31;63013;51.104;-115.370;2022-11-20T04:36:27;20.12;37.19
74537;SHT31;63013;51.104;-115.370;2022-11-20T04:38:56;20.11;37.19
74537;SHT31;63013;51.104;-115.370;2022-11-20T04:41:27;20.10;37.14
74537;SHT31;63013;51.104;-115.370;2022-11-20T04:43:58;20.07;37.14
74537;SHT31;63013;51.104;-115.370;2022-11-20T04:46:29;20.07;37.13
74537;SHT31;63013;51.104;-115.370;2022-11-20T04:49:07;20.05;37.14
74537;SHT31;63013;51.104;-115.370;2022-11-20T04:51:36;20.02;37.11
74537;SHT31;63013;51.104;-115.370;2022-11-20T04:54:03;20.02;37.14
74537;SHT31;63013;51.104;-115.370;2022-11-20T04:56:31;20.00;37.12
74537;SHT31;63013;51.104;-115.370;2022-11-20T04:59:01;19.98;37.10
74537;SHT31;63013;51.104;-115.370;2022-11-20T05:01:28;19.97;37.12
74537;SHT31;63013;51.104;-115.370;2022-11-20T05:03:55;19.96;37.12
74537;SHT31;63013;51.104;-115.370;2022-11-20T05:06:23;19.94;37.11
74537;SHT31;63013;51.104;-115.370;2022-11-20T05:08:50;19.93;37.11
74537;SHT31;63013;51.104;-115.370;2022-11-20T05:11:19;19.91;37.10
74537;SHT31;63013;51.104;-115.370;2022-11-20T05:13:47;19.90;37.10
74537;SHT31;63013;51.104;-115.370;2022-11-20T05:16:17;19.88;37.08
74537;SHT31;63013;51.104;-115.370;2022-11-20T05:18:48;19.88;37.08
74537;SHT31;63013;51.104;-115.370;2022-11-20T05:21:17;19.87;37.08
74537;SHT31;63013;51.104;-115.370;2022-11-20T05:23:44;19.83;37.07
74537;SHT31;63013;51.104;-115.370;2022-11-20T05:26:16;19.82;37.01
74537;SHT31;63013;51.104;-115.370;2022-11-20T05:28:49;19.81;37.00
74537;SHT31;63013;51.104;-115.370;2022-11-20T05:31:18;19.80;37.00
74537;SHT31;63013;51.104;-115.370;2022-11-20T05:33:50;19.77;37.00
74537;SHT31;63013;51.104;-115.370;2022-11-20T05:36:17;19.75;37.00
74537;SHT31;63013;51.104;-115.370;2022-11-20T05:38:44;19.74;37.01
74537;SHT31;63013;51.104;-115.370;2022-11-20T05:41:15;19.73;37.00
74537;SHT31;63013;51.104;-115.370;2022-11-20T05:43:45;19.70;36.98
74537;SHT31;63013;51.104;-115.370;2022-11-20T05:46:14;19.69;37.00
74537;SHT31;63013;51.104;-115.370;2022-11-20T05:48:45;19.66;37.00
74537;SHT31;63013;51.104;-115.370;2022-11-20T05:51:14;19.65;36.99
74537;SHT31;63013;51.104;-115.370;2022-11-20T05:53:44;19.64;37.00
74537;SHT31;63013;51.104;-115.370;2022-11-20T05:56:13;19.63;36.99
74537;SHT31;63013;51.104;-115.370;2022-11-20T05:58:45;19.61;36.96
74537;SHT31;63013;51.104;-115.370;2022-11-20T06:01:15;19.59;36.96
74537;SHT31;63013;51.104;-115.370;2022-11-20T06:03:47;19.58;36.94
74537;SHT31;63013;51.104;-115.370;2022-11-20T06:06:16;19.56;36.95
74537;SHT31;63013;51.104;-115.370;2022-11-20T06:08:45;19.54;36.94
74537;SHT31;63013;51.104;-115.370;2022-11-20T06:11:13;19.53;36.96
74537;SHT31;63013;51.104;-115.370;2022-11-20T06:13:42;19.52;36.95
74537;SHT31;63013;51.104;-115.370;2022-11-20T06:16:11;19.50;36.93
74537;SHT31;63013;51.104;-115.370;2022-11-20T06:18:41;19.49;36.90
74537;SHT31;63013;51.104;-115.370;2022-11-20T06:21:18;19.47;36.91
74537;SHT31;63013;51.104;-115.370;2022-11-20T06:23:47;19.45;36.93
74537;SHT31;63013;51.104;-115.370;2022-11-20T06:26:17;19.43;36.90
74537;SHT31;63013;51.104;-115.370;2022-11-20T06:28:48;19.41;36.90
74537;SHT31;63013;51.104;-115.370;2022-11-20T06:31:18;19.40;36.89
74537;SHT31;63013;51.104;-115.370;2022-11-20T06:33:48;19.39;36.91
74537;SHT31;63013;51.104;-115.370;2022-11-20T06:36:16;19.37;36.90
74537;SHT31;63013;51.104;-115.370;2022-11-20T06:38:46;19.36;36.92
74537;SHT31;63013;51.104;-115.370;2022-11-20T06:41:17;19.34;36.88
74537;SHT31;63013;51.104;-115.370;2022-11-20T06:43:46;19.32;36.86
74537;SHT31;63013;51.104;-115.370;2022-11-20T06:46:14;19.30;36.83
74537;SHT31;63013;51.104;-115.370;2022-11-20T06:48:43;19.28;36.87
74537;SHT31;63013;51.104;-115.370;2022-11-20T06:51:11;19.26;36.86
74537;SHT31;63013;51.104;-115.370;2022-11-20T06:53:39;19.26;36.86
74537;SHT31;63013;51.104;-115.370;2022-11-20T06:56:06;19.24;36.84
74537;SHT31;63013;51.104;-115.370;2022-11-20T06:58:34;19.24;36.84
74537;SHT31;63013;51.104;-115.370;2022-11-20T07:01:03;19.21;36.85
74537;SHT31;63013;51.104;-115.370;2022-11-20T07:03:36;19.20;36.87
74537;SHT31;63013;51.104;-115.370;2022-11-20T07:06:04;19.19;36.82
74537;SHT31;63013;51.104;-115.370;2022-11-20T07:08:32;19.17;36.84
74537;SHT31;63013;51.104;-115.370;2022-11-20T07:11:00;19.15;36.81
74537;SHT31;63013;51.104;-115.370;2022-11-20T07:13:31;19.13;36.82
74537;SHT31;63013;51.104;-115.370;2022-11-20T07:16:01;19.11;36.80
74537;SHT31;63013;51.104;-115.370;2022-11-20T07:18:32;19.09;36.85
74537;SHT31;63013;51.104;-115.370;2022-11-20T07:21:00;19.07;36.82
74537;SHT31;63013;51.104;-115.370;2022-11-20T07:23:29;19.05;36.82
74537;SHT31;63013;51.104;-115.370;2022-11-20T07:25:56;19.03;36.80
74537;SHT31;63013;51.104;-115.370;2022-11-20T07:28:23;19.02;36.81
74537;SHT31;63013;51.104;-115.370;2022-11-20T07:30:53;19.00;36.80
74537;SHT31;63013;51.104;-115.370;2022-11-20T07:33:20;18.98;36.80
74537;SHT31;63013;51.104;-115.370;2022-11-20T07:35:47;18.95;36.80
74537;SHT31;63013;51.104;-115.370;2022-11-20T07:38:14;18.94;36.81
74537;SHT31;63013;51.104;-115.370;2022-11-20T07:40:41;18.91;36.81
74537;SHT31;63013;51.104;-115.370;2022-11-20T07:43:08;18.89;36.82
74537;SHT31;63013;51.104;-115.370;2022-11-20T07:45:35;18.87;36.81
74537;SHT31;63013;51.104;-115.370;2022-11-20T07:48:02;18.86;36.81
74537;SHT31;63013;51.104;-115.370;2022-11-20T07:50:29;18.85;36.80
74537;SHT31;63013;51.104;-115.370;2022-11-20T07:53:05;18.84;36.80
74537;SHT31;63013;51.104;-115.370;2022-11-20T07:55:33;18.82;36.80
74537;SHT31;63013;51.104;-115.370;2022-11-20T07:58:00;18.80;36.80
74537;SHT31;63013;51.104;-115.370;2022-11-20T08:00:27;18.78;36.80
74537;SHT31;63013;51.104;-115.370;2022-11-20T08:02:54;18.76;36.80
74537;SHT31;63013;51.104;-115.370;2022-11-20T08:05:21;18.74;36.80
74537;SHT31;63013;51.104;-115.370;2022-11-20T08:07:48;18.71;36.80
74537;SHT31;63013;51.104;-115.370;2022-11-20T08:10:15;18.70;36.80
74537;SHT31;63013;51.104;-115.370;2022-11-20T08:15:32;18.66;36.79
74537;SHT31;63013;51.104;-115.370;2022-11-20T08:18:01;18.64;36.81
74537;SHT31;63013;51.104;-115.370;2022-11-20T08:20:37;18.64;36.80
74537;SHT31;63013;51.104;-115.370;2022-11-20T08:23:05;18.61;36.79
74537;SHT31;63013;51.104;-115.370;2022-11-20T08:25:33;18.60;36.81
74537;SHT31;63013;51.104;-115.370;2022-11-20T08:28:04;18.58;36.80
74537;SHT31;63013;51.104;-115.370;2022-11-20T08:30:34;18.55;36.80
74537;SHT31;63013;51.104;-115.370;2022-11-20T08:33:04;18.53;36.80
74537;SHT31;63013;51.104;-115.370;2022-11-20T08:35:34;18.51;36.80
74537;SHT31;63013;51.104;-115.370;2022-11-20T08:38:04;18.49;36.80
74537;SHT31;63013;51.104;-115.370;2022-11-20T08:40:31;18.47;36.81
74537;SHT31;63013;51.104;-115.370;2022-11-20T08:42:59;18.45;36.81
74537;SHT31;63013;51.104;-115.370;2022-11-20T08:45:26;18.42;36.83
74537;SHT31;63013;51.104;-115.370;2022-11-20T08:47:53;18.40;36.83
74537;SHT31;63013;51.104;-115.370;2022-11-20T08:50:26;18.38;36.87
74537;SHT31;63013;51.104;-115.370;2022-11-20T08:52:53;18.37;36.86
74537;SHT31;63013;51.104;-115.370;2022-11-20T08:55:20;18.35;36.87
74537;SHT31;63013;51.104;-115.370;2022-11-20T08:57:47;18.33;36.84
74537;SHT31;63013;51.104;-115.370;2022-11-20T09:00:14;18.32;36.92
74537;SHT31;63013;51.104;-115.370;2022-11-20T09:02:42;18.29;36.85
74537;SHT31;63013;51.104;-115.370;2022-11-20T09:05:09;18.28;36.86
74537;SHT31;63013;51.104;-115.370;2022-11-20T09:07:36;18.26;36.89
74537;SHT31;63013;51.104;-115.370;2022-11-20T09:10:03;18.25;36.85
74537;SHT31;63013;51.104;-115.370;2022-11-20T09:12:32;18.22;36.88
74537;SHT31;63013;51.104;-115.370;2022-11-20T09:14:59;18.21;36.84
74537;SHT31;63013;51.104;-115.370;2022-11-20T09:17:26;18.19;36.87
74537;SHT31;63013;51.104;-115.370;2022-11-20T09:19:53;18.17;36.86
74537;SHT31;63013;51.104;-115.370;2022-11-20T09:22:19;18.16;36.89
74537;SHT31;63013;51.104;-115.370;2022-11-20T09:24:47;18.15;36.91
74537;SHT31;63013;51.104;-115.370;2022-11-20T09:27:14;18.13;36.90
74537;SHT31;63013;51.104;-115.370;2022-11-20T09:29:50;18.11;36.89
74537;SHT31;63013;51.104;-115.370;2022-11-20T09:32:18;18.10;36.89
74537;SHT31;63013;51.104;-115.370;2022-11-20T09:34:44;18.08;36.87
74537;SHT31;63013;51.104;-115.370;2022-11-20T09:37:12;18.07;36.88
74537;SHT31;63013;51.104;-115.370;2022-11-20T09:39:39;18.05;36.89
74537;SHT31;63013;51.104;-115.370;2022-11-20T09:42:49;18.04;36.87
74537;SHT31;63013;51.104;-115.370;2022-11-20T09:51:21;17.99;36.89
74537;SHT31;63013;51.104;-115.370;2022-11-20T09:54:27;17.97;36.88
74537;SHT31;63013;51.104;-115.370;2022-11-20T09:57:02;17.94;36.87
74537;SHT31;63013;51.104;-115.370;2022-11-20T09:59:42;17.94;36.90
74537;SHT31;63013;51.104;-115.370;2022-11-20T10:02:37;17.92;36.90
74537;SHT31;63013;51.104;-115.370;2022-11-20T10:05:19;17.89;36.87
74537;SHT31;63013;51.104;-115.370;2022-11-20T10:10:45;17.87;36.89
74537;SHT31;63013;51.104;-115.370;2022-11-20T10:22:35;17.78;36.87
74537;SHT31;63013;51.104;-115.370;2022-11-20T10:25:19;17.75;36.90
74537;SHT31;63013;51.104;-115.370;2022-11-20T10:28:34;17.72;36.90
74537;SHT31;63013;51.104;-115.370;2022-11-20T10:34:23;17.68;36.99
74537;SHT31;63013;51.104;-115.370;2022-11-20T10:37:26;17.66;36.95
74537;SHT31;63013;51.104;-115.370;2022-11-20T10:43:11;17.62;36.99
74537;SHT31;63013;51.104;-115.370;2022-11-20T10:45:46;17.60;36.98
74537;SHT31;63013;51.104;-115.370;2022-11-20T10:48:24;17.58;36.99
74537;SHT31;63013;51.104;-115.370;2022-11-20T10:56:41;17.53;37.04
74537;SHT31;63013;51.104;-115.370;2022-11-20T11:02:24;17.50;37.02
74537;SHT31;63013;51.104;-115.370;2022-11-20T11:08:39;17.44;37.00
74537;SHT31;63013;51.104;-115.370;2022-11-20T11:14:09;17.40;37.08
74537;SHT31;63013;51.104;-115.370;2022-11-20T11:16:55;17.38;37.22
74537;SHT31;63013;51.104;-115.370;2022-11-20T11:19:23;17.37;37.09
74537;SHT31;63013;51.104;-115.370;2022-11-20T11:21:54;17.37;37.12
74537;SHT31;63013;51.104;-115.370;2022-11-20T11:24:26;17.35;37.05
74537;SHT31;63013;51.104;-115.370;2022-11-20T11:27:02;17.34;37.12
74537;SHT31;63013;51.104;-115.370;2022-11-20T11:29:38;17.33;37.17
74537;SHT31;63013;51.104;-115.370;2022-11-20T11:32:06;17.33;37.15
74537;SHT31;63013;51.104;-115.370;2022-11-20T11:34:34;17.32;37.06
74537;SHT31;63013;51.104;-115.370;2022-11-20T11:37:02;17.31;37.07
74537;SHT31;63013;51.104;-115.370;2022-11-20T11:39:30;17.30;37.14
74537;SHT31;63013;51.104;-115.370;2022-11-20T11:41:59;17.29;37.13
74537;SHT31;63013;51.104;-115.370;2022-11-20T11:44:28;17.29;37.10
74537;SHT31;63013;51.104;-115.370;2022-11-20T11:47:25;17.26;37.03
74537;SHT31;63013;51.104;-115.370;2022-11-20T11:50:27;17.25;37.18
74537;SHT31;63013;51.104;-115.370;2022-11-20T11:55:47;17.22;37.02
74537;SHT31;63013;51.104;-115.370;2022-11-20T11:58:47;17.21;37.06
74537;SHT31;63013;51.104;-115.370;2022-11-20T12:01:24;17.18;37.15
74537;SHT31;63013;51.104;-115.370;2022-11-20T12:07:03;17.15;37.14
74537;SHT31;63013;51.104;-115.370;2022-11-20T12:09:49;17.14;37.12
74537;SHT31;63013;51.104;-115.370;2022-11-20T12:12:24;17.12;37.14
74537;SHT31;63013;51.104;-115.370;2022-11-20T12:15:09;17.11;37.15
74537;SHT31;63013;51.104;-115.370;2022-11-20T12:17:47;17.09;37.22
74537;SHT31;63013;51.104;-115.370;2022-11-20T12:20:14;17.08;37.15
74537;SHT31;63013;51.104;-115.370;2022-11-20T12:25:45;17.05;37.05
74537;SHT31;63013;51.104;-115.370;2022-11-20T12:34:05;17.00;37.11
74537;SHT31;63013;51.104;-115.370;2022-11-20T12:39:57;16.96;37.27
74537;SHT31;63013;51.104;-115.370;2022-11-20T12:55:20;16.89;37.17
74537;SHT31;63013;51.104;-115.370;2022-11-20T12:58:08;16.87;37.18
74537;SHT31;63013;51.104;-115.370;2022-11-20T13:06:57;16.83;37.12
74537;SHT31;63013;51.104;-115.370;2022-11-20T13:09:27;16.81;37.19
74537;SHT31;63013;51.104;-115.370;2022-11-20T13:12:13;16.81;37.23
74537;SHT31;63013;51.104;-115.370;2022-11-20T13:18:20;16.77;37.27
74537;SHT31;63013;51.104;-115.370;2022-11-20T13:20:48;16.76;37.19
74537;SHT31;63013;51.104;-115.370;2022-11-20T13:23:23;16.76;37.10
74537;SHT31;63013;51.104;-115.370;2022-11-20T13:26:04;16.74;37.13
74537;SHT31;63013;51.104;-115.370;2022-11-20T13:28:42;16.73;37.13
74537;SHT31;63013;51.104;-115.370;2022-11-20T13:31:32;16.71;37.30
74537;SHT31;63013;51.104;-115.370;2022-11-20T13:34:01;16.68;37.04
74537;SHT31;63013;51.104;-115.370;2022-11-20T13:36:32;16.68;37.00
74537;SHT31;63013;51.104;-115.370;2022-11-20T13:39:01;16.68;37.00
74537;SHT31;63013;51.104;-115.370;2022-11-20T13:41:33;16.67;37.00
74537;SHT31;63013;51.104;-115.370;2022-11-20T13:46:50;16.70;37.11
74537;SHT31;63013;51.104;-115.370;2022-11-20T13:55:04;16.79;37.20
74537;SHT31;63013;51.104;-115.370;2022-11-20T14:01:07;16.85;37.24
74537;SHT31;63013;51.104;-115.370;2022-11-20T14:03:45;16.88;37.23
74537;SHT31;63013;51.104;-115.370;2022-11-20T14:08:54;16.97;37.23
74537;SHT31;63013;51.104;-115.370;2022-11-20T14:11:25;17.00;37.24
74537;SHT31;63013;51.104;-115.370;2022-11-20T14:13:56;17.04;37.22
74537;SHT31;63013;51.104;-115.370;2022-11-20T14:16:29;17.09;37.22
74537;SHT31;63013;51.104;-115.370;2022-11-20T14:19:19;17.13;37.23
74537;SHT31;63013;51.104;-115.370;2022-11-20T14:22:06;17.19;37.21
74537;SHT31;63013;51.104;-115.370;2022-11-20T14:25:32;17.26;37.20
74537;SHT31;63013;51.104;-115.370;2022-11-20T14:27:50;17.31;37.20
74537;SHT31;63013;51.104;-115.370;2022-11-20T14:30:39;17.38;37.20
74537;SHT31;63013;51.104;-115.370;2022-11-20T14:33:14;17.43;37.20
74537;SHT31;63013;51.104;-115.370;2022-11-20T14:35:46;17.49;37.18
74537;SHT31;63013;51.104;-115.370;2022-11-20T14:38:22;17.55;37.14
74537;SHT31;63013;51.104;-115.370;2022-11-20T14:41:15;17.60;37.11
74537;SHT31;63013;51.104;-115.370;2022-11-20T14:43:45;17.67;37.10
74537;SHT31;63013;51.104;-115.370;2022-11-20T14:46:27;17.72;37.10
74537;SHT31;63013;51.104;-115.370;2022-11-20T14:48:57;17.77;37.09
74537;SHT31;63013;51.104;-115.370;2022-11-20T14:51:33;17.84;37.12
74537;SHT31;63013;51.104;-115.370;2022-11-20T14:54:19;17.89;37.21
74537;SHT31;63013;51.104;-115.370;2022-11-20T14:56:58;17.95;37.23
74537;SHT31;63013;51.104;-115.370;2022-11-20T14:59:32;18.00;37.26
74537;SHT31;63013;51.104;-115.370;2022-11-20T15:02:04;18.06;37.24
74537;SHT31;63013;51.104;-115.370;2022-11-20T15:04:49;18.12;37.25
74537;SHT31;63013;51.104;-115.370;2022-11-20T15:07:25;18.18;37.26
74537;SHT31;63013;51.104;-115.370;2022-11-20T15:10:02;18.23;37.26
74537;SHT31;63013;51.104;-115.370;2022-11-20T15:12:40;18.29;37.25
74537;SHT31;63013;51.104;-115.370;2022-11-20T15:15:17;18.34;37.26
74537;SHT31;63013;51.104;-115.370;2022-11-20T15:17:53;18.39;37.25
74537;SHT31;63013;51.104;-115.370;2022-11-20T15:20:20;18.45;37.28
74537;SHT31;63013;51.104;-115.370;2022-11-20T15:22:53;18.50;37.29
74537;SHT31;63013;51.104;-115.370;2022-11-20T15:25:21;18.58;37.26
74537;SHT31;63013;51.104;-115.370;2022-11-20T15:27:52;18.66;37.24
74537;SHT31;63013;51.104;-115.370;2022-11-20T15:30:23;18.73;37.22
74537;SHT31;63013;51.104;-115.370;2022-11-20T15:32:50;18.81;37.24
74537;SHT31;63013;51.104;-115.370;2022-11-20T15:35:18;18.89;37.17
74537;SHT31;63013;51.104;-115.370;2022-11-20T15:37:45;18.97;37.17
74537;SHT31;63013;51.104;-115.370;2022-11-20T15:40:12;19.04;37.12
74537;SHT31;63013;51.104;-115.370;2022-11-20T15:42:39;19.09;37.11
74537;SHT31;63013;51.104;-115.370;2022-11-20T15:45:26;19.16;37.10
74537;SHT31;63013;51.104;-115.370;2022-11-20T15:48:11;19.22;37.05
74537;SHT31;63013;51.104;-115.370;2022-11-20T15:50:59;19.28;37.00
74537;SHT31;63013;51.104;-115.370;2022-11-20T15:53:36;19.33;36.97
74537;SHT31;63013;51.104;-115.370;2022-11-20T15:56:14;19.40;36.94
74537;SHT31;63013;51.104;-115.370;2022-11-20T15:58:41;19.46;36.90
74537;SHT31;63013;51.104;-115.370;2022-11-20T16:01:12;19.52;36.90
74537;SHT31;63013;51.104;-115.370;2022-11-20T16:03:42;19.59;36.90
74537;SHT31;63013;51.104;-115.370;2022-11-20T16:06:10;19.67;36.84
74537;SHT31;63013;51.104;-115.370;2022-11-20T16:08:37;19.75;36.80
74537;SHT31;63013;51.104;-115.370;2022-11-20T16:11:04;19.82;36.80
74537;SHT31;63013;51.104;-115.370;2022-11-20T16:13:32;19.90;36.78
74537;SHT31;63013;51.104;-115.370;2022-11-20T16:16:38;19.95;36.72
74537;SHT31;63013;51.104;-115.370;2022-11-20T16:19:05;19.99;36.72
74537;SHT31;63013;51.104;-115.370;2022-11-20T16:21:39;19.98;36.77
74537;SHT31;63013;51.104;-115.370;2022-11-20T16:24:08;19.97;36.80
74537;SHT31;63013;51.104;-115.370;2022-11-20T16:26:38;19.95;36.80
74537;SHT31;63013;51.104;-115.370;2022-11-20T16:29:06;19.94;36.83
74537;SHT31;63013;51.104;-115.370;2022-11-20T16:31:33;19.92;36.90
74537;SHT31;63013;51.104;-115.370;2022-11-20T16:34:02;19.92;36.91
74537;SHT31;63013;51.104;-115.370;2022-11-20T16:36:32;19.94;36.93
74537;SHT31;63013;51.104;-115.370;2022-11-20T16:39:00;19.97;36.97
74537;SHT31;63013;51.104;-115.370;2022-11-20T16:41:32;19.99;36.97
74537;SHT31;63013;51.104;-115.370;2022-11-20T16:44:01;20.02;36.98
74537;SHT31;63013;51.104;-115.370;2022-11-20T16:46:33;20.05;37.00
74537;SHT31;63013;51.104;-115.370;2022-11-20T16:49:00;20.07;37.04
74537;SHT31;63013;51.104;-115.370;2022-11-20T16:51:33;20.07;37.09
74537;SHT31;63013;51.104;-115.370;2022-11-20T16:54:01;20.07;37.10
74537;SHT31;63013;51.104;-115.370;2022-11-20T16:56:33;20.05;37.17
74537;SHT31;63013;51.104;-115.370;2022-11-20T16:59:00;20.03;37.20
74537;SHT31;63013;51.104;-115.370;2022-11-20T17:01:29;20.02;37.26
74537;SHT31;63013;51.104;-115.370;2022-11-20T17:04:00;20.00;37.30
74537;SHT31;63013;51.104;-115.370;2022-11-20T17:06:33;20.02;37.38
74537;SHT31;63013;51.104;-115.370;2022-11-20T17:09:03;20.04;37.38